createdAt,value
2022-07-29T00:00:26.026Z,100638.00
2022-07-29T00:03:05.002Z,100637.84
2022-07-29T00:05:33.747Z,100628.66
2022-07-29T00:08:02.297Z,100623.34
2022-07-29T00:10:30.881Z,100618.69
2022-07-29T00:12:59.658Z,100617.25
2022-07-29T00:15:28.233Z,100610.97
2022-07-29T00:17:56.590Z,100618.09
2022-07-29T00:20:25.140Z,100621.34
2022-07-29T00:22:54.681Z,100627.06
2022-07-29T00:25:23.125Z,100631.03
2022-07-29T00:27:51.795Z,100630.72
2022-07-29T00:30:20.312Z,100630.16
2022-07-29T00:32:48.750Z,100623.16
2022-07-29T00:35:35.722Z,100612.50
2022-07-29T00:38:04.192Z,100601.66
2022-07-29T00:40:33.071Z,100604.69
2022-07-29T00:43:01.551Z,100606.59
2022-07-29T00:45:31.299Z,100609.53
2022-07-29T00:48:00.022Z,100610.72
2022-07-29T00:50:28.429Z,100601.81
2022-07-29T00:52:56.829Z,100611.19
2022-07-29T00:55:25.382Z,100609.56
2022-07-29T00:57:54.509Z,100606.84
2022-07-29T01:00:27.049Z,100608.59
2022-07-29T01:02:55.700Z,100604.78
2022-07-29T01:05:50.975Z,100615.19
2022-07-29T01:08:16.758Z,100618.13
2022-07-29T01:10:45.735Z,100608.28
2022-07-29T01:13:16.267Z,100594.84
2022-07-29T01:15:49.880Z,100596.81
2022-07-29T01:18:24.322Z,100595.31
2022-07-29T01:21:08.136Z,100599.19
2022-07-29T01:23:54.997Z,100602.63
2022-07-29T01:26:55.715Z,100602.47
2022-07-29T01:29:36.276Z,100597.31
2022-07-29T01:32:22.579Z,100599.38
2022-07-29T01:35:14.086Z,100595.72
2022-07-29T01:37:48.906Z,100589.47
2022-07-29T01:40:49.562Z,100593.28
2022-07-29T01:43:22.846Z,100595.47
2022-07-29T01:45:59.097Z,100598.41
2022-07-29T01:48:50.557Z,100593.34
2022-07-29T01:51:28.705Z,100592.69
2022-07-29T01:54:10.207Z,100588.47
2022-07-29T01:56:39.760Z,100594.41
2022-07-29T01:59:09.817Z,100598.75
2022-07-29T02:01:41.080Z,100606.53
2022-07-29T02:04:11.628Z,100605.78
2022-07-29T02:07:04.285Z,100609.00
2022-07-29T02:09:36.294Z,100607.22
2022-07-29T02:12:06.046Z,100598.94
2022-07-29T02:14:38.387Z,100607.00
2022-07-29T02:17:07.475Z,100610.63
2022-07-29T02:19:39.499Z,100607.25
2022-07-29T02:22:09.015Z,100601.94
2022-07-29T02:24:38.605Z,100609.41
2022-07-29T02:27:08.846Z,100612.25
2022-07-29T02:29:38.837Z,100618.75
2022-07-29T02:32:08.755Z,100615.94
2022-07-29T02:34:37.839Z,100608.72
2022-07-29T02:37:06.855Z,100613.50
2022-07-29T02:39:36.116Z,100608.22
2022-07-29T02:42:11.481Z,100602.47
2022-07-29T02:44:40.441Z,100604.66
2022-07-29T02:47:25.432Z,100608.28
2022-07-29T02:49:55.486Z,100605.09
2022-07-29T02:52:39.087Z,100613.19
2022-07-29T02:55:28.375Z,100610.97
2022-07-29T02:58:03.597Z,100608.13
2022-07-29T03:00:36.446Z,100609.81
2022-07-29T03:03:07.805Z,100611.53
2022-07-29T03:05:36.736Z,100613.91
2022-07-29T03:08:08.645Z,100619.91
2022-07-29T03:10:39.287Z,100617.84
2022-07-29T03:13:09.030Z,100621.22
2022-07-29T03:15:38.103Z,100611.44
2022-07-29T03:18:08.298Z,100609.97
2022-07-29T03:20:37.085Z,100609.31
2022-07-29T03:23:05.886Z,100612.28
2022-07-29T03:25:34.436Z,100598.78
2022-07-29T03:28:02.896Z,100596.75
2022-07-29T03:30:32.242Z,100599.16
2022-07-29T03:33:01.125Z,100604.91
2022-07-29T03:35:33.128Z,100607.94
2022-07-29T03:38:01.958Z,100597.06
2022-07-29T03:40:55.965Z,100605.16
2022-07-29T03:43:27.047Z,100619.72
2022-07-29T03:45:56.730Z,100615.56
2022-07-29T03:48:26.896Z,100612.09
2022-07-29T03:50:55.406Z,100619.09
2022-07-29T03:53:24.304Z,100624.91
2022-07-29T03:55:55.654Z,100614.56
2022-07-29T03:58:24.788Z,100611.75
2022-07-29T04:00:54.226Z,100614.41
2022-07-29T04:03:23.001Z,100607.38
2022-07-29T04:06:08.736Z,100605.75
2022-07-29T04:08:37.457Z,100612.69
2022-07-29T04:11:07.078Z,100618.13
2022-07-29T04:13:35.486Z,100626.25
2022-07-29T04:16:04.531Z,100627.72
2022-07-29T04:18:32.926Z,100632.09
2022-07-29T04:21:02.185Z,100636.03
2022-07-29T04:23:34.819Z,100635.25
2022-07-29T04:26:03.535Z,100644.81
2022-07-29T04:28:32.666Z,100654.16
2022-07-29T04:31:01.144Z,100655.59
2022-07-29T04:33:29.618Z,100651.22
2022-07-29T04:35:58.425Z,100656.59
2022-07-29T04:38:27.846Z,100652.06
2022-07-29T04:40:56.319Z,100656.69
2022-07-29T04:43:24.908Z,100646.31
2022-07-29T04:45:53.442Z,100658.28
2022-07-29T04:48:26.686Z,100667.91
2022-07-29T04:50:57.977Z,100663.91
2022-07-29T04:53:27.987Z,100671.97
2022-07-29T04:55:56.447Z,100671.97
2022-07-29T04:58:25.485Z,100675.47
2022-07-29T05:00:54.036Z,100679.16
2022-07-29T05:03:22.525Z,100690.47
2022-07-29T05:05:51.256Z,100689.00
2022-07-29T05:08:19.806Z,100696.94
2022-07-29T05:10:48.267Z,100699.16
2022-07-29T05:13:17.648Z,100707.00
2022-07-29T05:15:46.113Z,100698.63
2022-07-29T05:18:15.547Z,100712.38
2022-07-29T05:20:44.287Z,100706.81
2022-07-29T05:23:14.148Z,100713.84
2022-07-29T05:25:44.025Z,100707.03
2022-07-29T05:28:13.681Z,100709.13
2022-07-29T05:30:42.121Z,100698.81
2022-07-29T05:33:35.124Z,100703.03
2022-07-29T05:36:00.760Z,100703.31
2022-07-29T05:38:30.410Z,100701.28
2022-07-29T05:41:00.341Z,100712.59
2022-07-29T05:43:29.482Z,100702.84
2022-07-29T05:45:58.241Z,100702.47
2022-07-29T05:48:27.148Z,100699.72
2022-07-29T05:50:56.134Z,100702.41
2022-07-29T05:53:24.596Z,100706.38
2022-07-29T05:55:53.511Z,100697.81
2022-07-29T05:58:22.237Z,100700.63
2022-07-29T06:00:50.719Z,100699.13
2022-07-29T06:03:19.190Z,100698.28
2022-07-29T06:05:47.713Z,100694.38
2022-07-29T06:08:15.923Z,100697.81
2022-07-29T06:10:45.241Z,100706.09
2022-07-29T06:13:14.370Z,100698.88
2022-07-29T06:15:43.660Z,100701.09
2022-07-29T06:18:14.592Z,100691.81
2022-07-29T06:20:43.434Z,100687.25
2022-07-29T06:23:11.769Z,100687.25
2022-07-29T06:25:41.939Z,100678.19
2022-07-29T06:28:10.739Z,100687.72
2022-07-29T06:30:40.715Z,100684.19
2022-07-29T06:33:09.600Z,100678.75
2022-07-29T06:35:42.283Z,100688.94
2022-07-29T06:38:31.816Z,100701.44
2022-07-29T06:41:12.289Z,100695.69
2022-07-29T06:43:51.854Z,100693.63
2022-07-29T06:46:23.683Z,100691.34
2022-07-29T06:48:53.572Z,100695.22
2022-07-29T06:51:23.817Z,100704.34
2022-07-29T06:54:00.331Z,100703.84
2022-07-29T06:56:38.484Z,100713.28
2022-07-29T06:59:10.325Z,100715.94
2022-07-29T07:01:40.489Z,100715.25
2022-07-29T07:04:10.147Z,100712.66
2022-07-29T07:06:39.129Z,100719.19
2022-07-29T07:09:08.190Z,100719.09
2022-07-29T07:11:36.909Z,100719.78
2022-07-29T07:14:05.303Z,100721.00
2022-07-29T07:16:33.949Z,100723.25
2022-07-29T07:19:02.892Z,100723.38
2022-07-29T07:21:31.615Z,100728.56
2022-07-29T07:24:01.118Z,100719.44
2022-07-29T07:26:29.738Z,100714.22
2022-07-29T07:28:58.238Z,100719.50
2022-07-29T07:31:26.652Z,100736.66
2022-07-29T07:33:55.253Z,100733.59
2022-07-29T07:36:24.409Z,100734.16
2022-07-29T07:38:52.773Z,100732.47
2022-07-29T07:41:22.138Z,100750.38
2022-07-29T07:43:50.650Z,100731.16
2022-07-29T07:46:19.119Z,100736.00
2022-07-29T07:48:47.884Z,100722.47
2022-07-29T07:51:16.468Z,100720.09
2022-07-29T07:53:46.130Z,100715.75
2022-07-29T07:56:14.798Z,100710.75
2022-07-29T07:58:43.219Z,100715.69
2022-07-29T08:01:11.847Z,100714.84
2022-07-29T08:03:40.732Z,100711.28
2022-07-29T08:06:09.028Z,100702.13
2022-07-29T08:08:37.421Z,100701.97
2022-07-29T08:11:09.716Z,100699.19
2022-07-29T08:13:39.718Z,100698.66
2022-07-29T08:16:13.525Z,100697.94
2022-07-29T08:18:43.597Z,100687.53
2022-07-29T08:21:14.793Z,100703.47
2022-07-29T08:23:58.938Z,100696.63
2022-07-29T08:26:29.749Z,100691.47
2022-07-29T08:28:58.109Z,100694.75
2022-07-29T08:31:26.518Z,100690.94
2022-07-29T08:33:57.462Z,100693.91
2022-07-29T08:36:27.808Z,100690.22
2022-07-29T08:38:56.630Z,100691.16
2022-07-29T08:41:25.098Z,100691.97
2022-07-29T08:43:53.966Z,100684.63
2022-07-29T08:46:23.385Z,100687.22
2022-07-29T08:48:51.970Z,100685.50
2022-07-29T08:51:22.097Z,100681.00
2022-07-29T08:53:51.740Z,100692.34
2022-07-29T08:56:21.193Z,100692.75
2022-07-29T08:58:51.886Z,100686.41
2022-07-29T09:01:35.278Z,100686.81
2022-07-29T09:04:09.384Z,100689.34
2022-07-29T09:06:39.843Z,100692.31
2022-07-29T09:09:09.037Z,100691.91
2022-07-29T09:11:37.652Z,100697.31
2022-07-29T09:14:06.890Z,100700.72
2022-07-29T09:16:57.635Z,100689.59
2022-07-29T09:19:36.279Z,100675.81
2022-07-29T09:22:06.829Z,100673.81
2022-07-29T09:24:44.087Z,100659.41
2022-07-29T09:27:23.329Z,100655.72
2022-07-29T09:30:05.054Z,100655.16
2022-07-29T09:32:55.756Z,100656.88
2022-07-29T09:35:26.408Z,100648.88
2022-07-29T09:37:55.299Z,100659.72
2022-07-29T09:40:27.585Z,100658.59
2022-07-29T09:42:58.707Z,100659.16
2022-07-29T09:45:33.814Z,100664.00
2022-07-29T09:48:22.728Z,100670.00
2022-07-29T09:50:51.876Z,100658.28
2022-07-29T09:53:38.371Z,100657.44
2022-07-29T09:56:07.211Z,100657.03
2022-07-29T09:58:35.869Z,100663.75
2022-07-29T10:01:05.163Z,100656.03
2022-07-29T10:03:33.692Z,100648.91
2022-07-29T10:06:20.631Z,100653.75
2022-07-29T10:08:51.131Z,100656.03
2022-07-29T10:11:20.460Z,100645.66
2022-07-29T10:13:49.898Z,100650.06
2022-07-29T10:16:19.156Z,100655.72
2022-07-29T10:18:48.101Z,100651.13
2022-07-29T10:21:35.064Z,100645.78
2022-07-29T10:24:06.520Z,100645.19
2022-07-29T10:26:35.495Z,100638.94
2022-07-29T10:29:03.947Z,100633.81
2022-07-29T10:31:50.942Z,100642.50
2022-07-29T10:34:50.017Z,100636.47
2022-07-29T10:37:38.337Z,100645.44
2022-07-29T10:41:08.758Z,100640.19
2022-07-29T10:43:43.287Z,100637.44
2022-07-29T10:46:13.634Z,100631.31
2022-07-29T10:49:09.191Z,100619.75
2022-07-29T10:52:00.853Z,100620.56
2022-07-29T10:54:48.816Z,100616.03
2022-07-29T10:57:17.809Z,100611.50
2022-07-29T10:59:49.369Z,100620.06
2022-07-29T11:02:43.481Z,100606.63
2022-07-29T11:05:21.746Z,100609.16
2022-07-29T11:08:20.206Z,100601.19
2022-07-29T11:10:51.549Z,100598.88
2022-07-29T11:13:44.591Z,100602.88
2022-07-29T11:16:16.681Z,100583.63
2022-07-29T11:19:26.590Z,100589.69
2022-07-29T11:21:59.917Z,100582.56
2022-07-29T11:24:32.476Z,100582.53
2022-07-29T11:27:13.223Z,100592.25
2022-07-29T11:29:52.561Z,100592.53
2022-07-29T11:32:24.295Z,100583.88
2022-07-29T11:35:19.268Z,100580.44
2022-07-29T11:38:32.040Z,100578.44
2022-07-29T11:41:19.020Z,100585.88
2022-07-29T11:43:59.051Z,100572.53
2022-07-29T11:46:54.003Z,100574.19
2022-07-29T11:49:32.158Z,100575.84
2022-07-29T11:52:03.259Z,100571.66
2022-07-29T11:57:36.086Z,100576.66
2022-07-29T12:00:14.656Z,100573.94
2022-07-29T12:02:48.474Z,100568.06
2022-07-29T12:05:35.849Z,100565.66
2022-07-29T12:07:02.300Z,100583.78
2022-07-29T12:08:14.752Z,100575.34
2022-07-29T12:10:44.215Z,100560.38
2022-07-29T12:13:13.788Z,100563.16
2022-07-29T12:15:56.425Z,100561.38
2022-07-29T12:18:29.150Z,100561.94
2022-07-29T12:21:05.067Z,100559.13
2022-07-29T12:23:35.586Z,100557.34
2022-07-29T12:26:10.649Z,100554.38
2022-07-29T12:28:40.484Z,100545.00
2022-07-29T12:31:42.431Z,100546.50
2022-07-29T12:34:04.460Z,100540.00
2022-07-29T12:36:32.777Z,100541.44
2022-07-29T12:39:01.296Z,100538.44
2022-07-29T12:41:30.528Z,100541.28
2022-07-29T12:43:58.858Z,100536.22
2022-07-29T12:46:27.232Z,100538.06
2022-07-29T12:48:57.711Z,100535.81
2022-07-29T12:51:40.238Z,100531.28
2022-07-29T12:54:14.944Z,100535.13
2022-07-29T12:56:45.776Z,100526.00
2022-07-29T12:59:20.160Z,100526.25
2022-07-29T13:01:51.661Z,100526.34
2022-07-29T13:04:28.799Z,100525.00
2022-07-29T13:07:07.649Z,100519.94
2022-07-29T13:09:44.361Z,100519.06
2022-07-29T13:12:14.874Z,100503.28
2022-07-29T13:14:45.739Z,100500.72
2022-07-29T13:17:24.311Z,100496.22
2022-07-29T13:19:55.083Z,100489.09
2022-07-29T13:22:25.297Z,100477.88
2022-07-29T13:24:59.239Z,100473.34
2022-07-29T13:27:33.438Z,100465.94
2022-07-29T13:30:03.817Z,100463.88
2022-07-29T13:32:35.639Z,100454.91
2022-07-29T13:35:07.720Z,100456.63
2022-07-29T13:37:39.807Z,100458.22
2022-07-29T13:40:09.722Z,100450.41
2022-07-29T13:42:38.246Z,100448.34
2022-07-29T13:45:08.130Z,100451.53
2022-07-29T13:47:36.911Z,100447.03
2022-07-29T13:50:07.714Z,100442.34
2022-07-29T13:52:36.098Z,100431.41
2022-07-29T13:55:05.958Z,100434.38
2022-07-29T13:57:34.420Z,100427.63
2022-07-29T14:00:03.010Z,100420.72
2022-07-29T14:02:36.931Z,100422.34
2022-07-29T14:05:08.631Z,100424.88
2022-07-29T14:07:40.101Z,100419.56
2022-07-29T14:10:08.839Z,100423.66
2022-07-29T14:12:37.517Z,100412.03
2022-07-29T14:15:06.661Z,100412.03
2022-07-29T14:17:35.589Z,100405.25
2022-07-29T14:20:05.308Z,100411.53
2022-07-29T14:22:37.840Z,100413.34
2022-07-29T14:25:14.469Z,100416.69
2022-07-29T14:27:44.968Z,100432.03
2022-07-29T14:30:13.751Z,100422.97
2022-07-29T14:32:42.602Z,100424.22
2022-07-29T14:35:11.142Z,100430.81
2022-07-29T14:37:40.846Z,100426.03
2022-07-29T14:40:10.441Z,100422.81
2022-07-29T14:42:40.127Z,100424.06
2022-07-29T14:45:10.214Z,100428.41
2022-07-29T14:47:39.490Z,100430.22
2022-07-29T14:50:08.872Z,100445.75
2022-07-29T14:52:37.563Z,100439.13
2022-07-29T14:55:19.425Z,100433.94
2022-07-29T14:57:49.577Z,100434.25
2022-07-29T15:00:18.993Z,100433.88
2022-07-29T15:03:01.259Z,100433.66
2022-07-29T15:05:32.536Z,100435.41
2022-07-29T15:08:01.039Z,100428.50
2022-07-29T15:10:29.934Z,100426.00
2022-07-29T15:13:01.420Z,100432.75
2022-07-29T15:15:30.065Z,100418.84
2022-07-29T15:17:58.303Z,100424.34
2022-07-29T15:20:28.277Z,100427.66
2022-07-29T15:22:57.265Z,100422.16
2022-07-29T15:25:27.970Z,100422.69
2022-07-29T15:28:01.226Z,100421.16
2022-07-29T15:30:34.777Z,100421.31
2022-07-29T15:33:04.554Z,100423.31
2022-07-29T15:35:33.485Z,100425.88
2022-07-29T15:38:09.600Z,100436.81
2022-07-29T15:40:41.500Z,100439.53
2022-07-29T15:43:10.180Z,100443.59
2022-07-29T15:45:40.760Z,100445.69
2022-07-29T15:48:14.628Z,100453.44
2022-07-29T15:50:47.048Z,100451.38
2022-07-29T15:53:15.775Z,100459.50
2022-07-29T15:55:44.488Z,100466.91
2022-07-29T15:58:13.298Z,100469.63
2022-07-29T16:00:41.757Z,100483.03
2022-07-29T16:03:10.490Z,100484.59
2022-07-29T16:05:39.016Z,100495.63
2022-07-29T16:08:07.446Z,100502.31
2022-07-29T16:10:36.637Z,100505.44
2022-07-29T16:13:05.002Z,100502.69
2022-07-29T16:15:33.321Z,100492.88
2022-07-29T16:18:01.840Z,100487.69
2022-07-29T16:20:31.506Z,100486.78
2022-07-29T16:22:59.777Z,100480.25
2022-07-29T16:25:50.236Z,100483.66
2022-07-29T16:28:17.480Z,100481.88
2022-07-29T16:30:45.937Z,100477.63
2022-07-29T16:33:14.322Z,100480.22
2022-07-29T16:35:43.135Z,100478.75
2022-07-29T16:38:11.447Z,100471.25
2022-07-29T16:40:39.596Z,100470.94
2022-07-29T16:43:07.891Z,100468.84
2022-07-29T16:45:42.569Z,100474.25
2022-07-29T16:48:17.319Z,100484.16
2022-07-29T16:50:46.912Z,100484.97
2022-07-29T16:53:15.066Z,100493.41
2022-07-29T16:55:43.146Z,100487.78
2022-07-29T16:58:12.157Z,100482.72
2022-07-29T17:00:40.752Z,100479.56
2022-07-29T17:03:09.074Z,100487.53
2022-07-29T17:05:52.550Z,100489.97
2022-07-29T17:08:23.217Z,100497.31
2022-07-29T17:10:51.707Z,100504.78
2022-07-29T17:13:19.950Z,100510.81
2022-07-29T17:15:48.140Z,100507.25
2022-07-29T17:18:16.518Z,100514.97
2022-07-29T17:20:45.714Z,100515.84
2022-07-29T17:23:14.007Z,100524.97
2022-07-29T17:25:42.342Z,100532.34
2022-07-29T17:28:10.464Z,100529.84
2022-07-29T17:30:38.688Z,100519.41
2022-07-29T17:33:06.982Z,100516.44
2022-07-29T17:35:53.455Z,100516.16
2022-07-29T17:38:21.793Z,100516.53
2022-07-29T17:40:49.948Z,100517.16
2022-07-29T17:43:18.154Z,100512.59
2022-07-29T17:45:50.226Z,100506.31
2022-07-29T17:48:20.091Z,100501.88
2022-07-29T17:50:49.122Z,100508.59
2022-07-29T17:53:17.352Z,100497.03
2022-07-29T17:55:46.578Z,100505.44
2022-07-29T17:58:15.137Z,100496.78
2022-07-29T18:00:44.025Z,100496.47
2022-07-29T18:03:12.493Z,100487.38
2022-07-29T18:05:41.372Z,100496.47
2022-07-29T18:08:09.568Z,100504.19
2022-07-29T18:10:38.226Z,100506.31
2022-07-29T18:13:06.649Z,100503.47
2022-07-29T18:15:35.147Z,100508.44
2022-07-29T18:18:03.327Z,100511.56
2022-07-29T18:20:31.702Z,100516.69
2022-07-29T18:23:00.076Z,100513.38
2022-07-29T18:25:29.094Z,100514.38
2022-07-29T18:28:00.524Z,100522.81
2022-07-29T18:30:29.947Z,100525.69
2022-07-29T18:33:20.686Z,100523.06
2022-07-29T18:35:51.142Z,100527.47
2022-07-29T18:38:22.017Z,100545.94
2022-07-29T18:40:51.158Z,100541.22
2022-07-29T18:43:19.337Z,100544.88
2022-07-29T18:45:49.988Z,100540.97
2022-07-29T18:48:18.905Z,100543.22
2022-07-29T18:50:47.034Z,100538.66
2022-07-29T18:53:15.317Z,100543.38
2022-07-29T18:55:43.647Z,100551.78
2022-07-29T18:58:11.976Z,100562.00
2022-07-29T19:00:40.371Z,100558.31
2022-07-29T19:03:10.327Z,100569.97
2022-07-29T19:05:38.731Z,100588.59
2022-07-29T19:08:07.151Z,100599.16
2022-07-29T19:10:35.397Z,100614.47
2022-07-29T19:13:05.761Z,100621.59
2022-07-29T19:15:34.357Z,100615.84
2022-07-29T19:18:02.730Z,100616.06
2022-07-29T19:20:31.081Z,100622.66
2022-07-29T19:22:59.770Z,100614.44
2022-07-29T19:25:28.354Z,100600.75
2022-07-29T19:27:58.753Z,100599.41
2022-07-29T19:30:27.883Z,100592.28
2022-07-29T19:32:56.325Z,100602.84
2022-07-29T19:35:24.825Z,100595.25
2022-07-29T19:37:56.921Z,100592.59
2022-07-29T19:40:26.690Z,100588.28
2022-07-29T19:42:55.511Z,100592.63
2022-07-29T19:45:26.093Z,100591.97
2022-07-29T19:48:00.731Z,100588.97
2022-07-29T19:50:30.365Z,100593.94
2022-07-29T19:52:59.446Z,100613.72
2022-07-29T19:55:28.360Z,100630.00
2022-07-29T19:57:59.436Z,100633.00
2022-07-29T20:00:31.477Z,100638.69
2022-07-29T20:03:00.144Z,100645.78
2022-07-29T20:05:28.888Z,100651.22
2022-07-29T20:07:57.434Z,100663.94
2022-07-29T20:10:26.073Z,100675.88
2022-07-29T20:12:55.197Z,100673.13
2022-07-29T20:15:24.294Z,100673.06
2022-07-29T20:17:57.201Z,100675.41
2022-07-29T20:20:26.377Z,100683.28
2022-07-29T20:22:54.946Z,100675.38
2022-07-29T20:25:23.937Z,100679.34
2022-07-29T20:27:55.336Z,100676.63
2022-07-29T20:30:23.991Z,100673.94
2022-07-29T20:32:52.348Z,100677.72
2022-07-29T20:35:22.575Z,100677.88
2022-07-29T20:37:56.323Z,100668.28
2022-07-29T20:40:26.411Z,100668.81
2022-07-29T20:42:55.531Z,100674.94
2022-07-29T20:45:24.175Z,100670.09
2022-07-29T20:47:53.219Z,100676.34
2022-07-29T20:50:24.325Z,100681.50
2022-07-29T20:52:53.266Z,100676.47
2022-07-29T20:55:21.916Z,100679.59
2022-07-29T20:57:50.545Z,100671.84
2022-07-29T21:00:19.067Z,100675.25
2022-07-29T21:02:47.595Z,100671.72
2022-07-29T21:05:17.724Z,100670.94
2022-07-29T21:07:46.267Z,100672.94
2022-07-29T21:10:15.505Z,100683.78
2022-07-29T21:12:46.787Z,100678.63
2022-07-29T21:15:15.404Z,100690.19
2022-07-29T21:17:47.631Z,100686.75
2022-07-29T21:20:19.164Z,100694.84
2022-07-29T21:22:47.730Z,100693.09
2022-07-29T21:25:16.087Z,100688.22
2022-07-29T21:28:03.074Z,100689.44
2022-07-29T21:30:31.454Z,100679.50
2022-07-29T21:33:00.106Z,100682.53
2022-07-29T21:36:02.151Z,100679.38
2022-07-29T21:38:18.694Z,100680.63
2022-07-29T21:40:48.315Z,100675.47
2022-07-29T21:43:17.818Z,100674.97
2022-07-29T21:45:52.705Z,100682.56
2022-07-29T21:48:21.925Z,100675.47
2022-07-29T21:50:51.950Z,100687.22
2022-07-29T21:53:22.905Z,100676.59
2022-07-29T21:55:54.005Z,100682.09
2022-07-29T21:58:25.045Z,100679.22
2022-07-29T22:00:54.149Z,100665.91
2022-07-29T22:03:22.782Z,100667.06
2022-07-29T22:05:51.235Z,100657.22
2022-07-29T22:08:22.043Z,100657.53
2022-07-29T22:10:50.615Z,100644.31
2022-07-29T22:13:18.965Z,100640.91
2022-07-29T22:15:48.815Z,100638.03
2022-07-29T22:18:20.921Z,100629.88
2022-07-29T22:20:50.523Z,100628.31
2022-07-29T22:23:18.985Z,100627.69
2022-07-29T22:25:47.427Z,100626.81
2022-07-29T22:28:16.088Z,100624.50
2022-07-29T22:30:44.389Z,100613.75
2022-07-29T22:33:17.578Z,100619.09
2022-07-29T22:35:48.690Z,100618.97
2022-07-29T22:38:18.810Z,100622.31
2022-07-29T22:40:48.700Z,100618.88
2022-07-29T22:43:19.228Z,100616.53
2022-07-29T22:45:47.574Z,100607.03
2022-07-29T22:48:16.735Z,100613.22
2022-07-29T22:50:45.097Z,100610.19
2022-07-29T22:53:13.386Z,100612.13
2022-07-29T22:55:42.264Z,100600.81
2022-07-29T22:58:10.777Z,100604.38
2022-07-29T23:00:39.221Z,100604.50
2022-07-29T23:03:07.817Z,100602.78
2022-07-29T23:05:36.688Z,100595.97
2022-07-29T23:08:07.572Z,100586.47
2022-07-29T23:10:36.486Z,100588.19
2022-07-29T23:13:04.803Z,100579.47
2022-07-29T23:15:33.283Z,100567.22
2022-07-29T23:18:05.314Z,100569.56
2022-07-29T23:20:33.893Z,100561.84
2022-07-29T23:23:02.483Z,100565.34
2022-07-29T23:25:31.435Z,100566.09
2022-07-29T23:27:59.807Z,100568.09
2022-07-29T23:30:28.555Z,100561.44
2022-07-29T23:32:57.715Z,100570.56
2022-07-29T23:35:26.230Z,100563.69
2022-07-29T23:37:54.773Z,100559.72
2022-07-29T23:40:23.394Z,100563.56
2022-07-29T23:42:51.913Z,100563.63
2022-07-29T23:45:20.524Z,100564.84
2022-07-29T23:47:49.183Z,100558.97
2022-07-29T23:50:17.825Z,100559.41
2022-07-29T23:52:46.314Z,100558.69
2022-07-29T23:55:37.957Z,100558.38
2022-07-29T23:58:03.523Z,100555.75
